createdAt,value
2018-06-10T00:00:20.625Z,99.90
2018-06-10T00:02:48.900Z,99.90
2018-06-10T00:05:17.169Z,99.90
2018-06-10T00:07:45.477Z,99.90
2018-06-10T00:10:13.996Z,99.90
2018-06-10T00:20:45.371Z,99.90
2018-06-10T00:23:13.625Z,99.90
2018-06-10T00:25:41.892Z,99.90
2018-06-10T00:28:10.147Z,99.90
2018-06-10T00:30:38.403Z,99.90
2018-06-10T00:33:06.668Z,99.90
2018-06-10T00:35:34.944Z,99.90
2018-06-10T00:38:03.204Z,99.90
2018-06-10T00:40:31.492Z,99.90
2018-06-10T00:42:59.793Z,99.90
2018-06-10T00:45:28.060Z,99.90
2018-06-10T00:47:56.325Z,99.90
2018-06-10T00:50:24.580Z,99.90
2018-06-10T00:52:52.841Z,99.90
2018-06-10T00:55:21.108Z,99.90
2018-06-10T00:57:49.376Z,99.90
2018-06-10T01:00:17.654Z,99.90
2018-06-10T01:02:45.910Z,99.90
2018-06-10T01:05:14.198Z,99.90
2018-06-10T01:07:42.431Z,99.90
2018-06-10T01:10:10.700Z,99.90
2018-06-10T01:12:44.853Z,99.90
2018-06-10T01:15:13.156Z,99.90
2018-06-10T01:17:41.431Z,99.90
2018-06-10T01:23:25.388Z,99.90
2018-06-10T01:25:53.704Z,99.90
2018-06-10T01:28:22.017Z,99.90
2018-06-10T01:30:58.256Z,99.90
2018-06-10T01:33:26.835Z,99.90
2018-06-10T01:35:55.130Z,99.90
2018-06-10T01:38:23.423Z,99.90
2018-06-10T01:40:51.699Z,99.90
2018-06-10T01:43:19.988Z,99.90
2018-06-10T01:45:48.285Z,99.90
2018-06-10T01:48:16.564Z,99.90
2018-06-10T01:50:44.841Z,99.90
2018-06-10T01:53:13.144Z,99.90
2018-06-10T01:55:41.451Z,99.90
2018-06-10T01:58:09.829Z,99.90
2018-06-10T02:00:38.108Z,99.90
2018-06-10T02:03:06.359Z,99.90
2018-06-10T02:05:34.630Z,99.90
2018-06-10T02:08:02.896Z,99.90
2018-06-10T02:10:31.153Z,99.90
2018-06-10T02:12:59.433Z,99.90
2018-06-10T02:15:27.676Z,99.90
2018-06-10T02:17:55.953Z,99.90
2018-06-10T02:20:36.080Z,99.90
2018-06-10T02:25:57.176Z,99.90
2018-06-10T02:28:25.440Z,99.90
2018-06-10T02:30:53.696Z,99.90
2018-06-10T02:33:21.974Z,99.90
2018-06-10T02:35:50.270Z,99.90
2018-06-10T02:38:18.508Z,99.90
2018-06-10T02:40:46.760Z,99.90
2018-06-10T02:43:15.001Z,99.90
2018-06-10T02:45:43.275Z,99.90
2018-06-10T02:48:11.505Z,99.90
2018-06-10T02:50:39.746Z,99.90
2018-06-10T02:53:08.004Z,99.90
2018-06-10T02:55:36.269Z,99.90
2018-06-10T02:58:04.542Z,99.90
2018-06-10T03:00:32.784Z,99.90
2018-06-10T03:03:01.021Z,99.90
2018-06-10T03:05:29.309Z,99.90
2018-06-10T03:07:57.661Z,99.90
2018-06-10T03:10:25.880Z,99.90
2018-06-10T03:12:54.136Z,99.90
2018-06-10T03:15:22.392Z,99.90
2018-06-10T03:17:50.651Z,99.90
2018-06-10T03:20:21.109Z,99.90
2018-06-10T03:25:42.204Z,99.90
2018-06-10T03:28:10.496Z,99.90
2018-06-10T03:30:38.776Z,99.90
2018-06-10T03:33:07.057Z,99.90
2018-06-10T03:35:35.338Z,99.90
2018-06-10T03:38:03.662Z,99.90
2018-06-10T03:40:31.958Z,99.90
2018-06-10T03:43:00.239Z,99.90
2018-06-10T03:45:28.541Z,99.90
2018-06-10T03:47:56.837Z,99.90
2018-06-10T03:50:25.120Z,99.90
2018-06-10T03:52:53.423Z,99.90
2018-06-10T03:55:21.721Z,99.90
2018-06-10T03:57:49.990Z,99.90
2018-06-10T04:00:18.253Z,99.90
2018-06-10T04:02:46.519Z,99.90
2018-06-10T04:05:14.772Z,99.90
2018-06-10T04:07:43.016Z,99.90
2018-06-10T04:10:11.260Z,99.90
2018-06-10T04:12:45.444Z,99.90
2018-06-10T04:21:31.439Z,99.90
2018-06-10T05:15:40.468Z,99.90
2018-06-10T05:18:08.808Z,99.90
2018-06-10T05:20:56.057Z,99.90
2018-06-10T05:23:24.411Z,99.90
2018-06-10T05:25:52.692Z,99.90
2018-06-10T05:28:20.990Z,99.90
2018-06-10T05:30:49.293Z,99.90
2018-06-10T05:33:17.557Z,99.90
2018-06-10T05:35:45.837Z,99.90
2018-06-10T05:38:14.136Z,99.90
2018-06-10T05:40:42.416Z,99.90
2018-06-10T05:43:10.724Z,99.90
2018-06-10T05:45:39.045Z,99.90
2018-06-10T05:48:07.351Z,99.90
2018-06-10T05:50:35.682Z,99.90
2018-06-10T05:53:03.947Z,99.90
2018-06-10T05:55:32.220Z,99.90
2018-06-10T05:58:00.798Z,99.90
2018-06-10T06:00:29.052Z,99.90
2018-06-10T06:02:57.335Z,99.90
2018-06-10T06:05:25.597Z,99.90
2018-06-10T06:07:53.829Z,99.90
2018-06-10T06:10:22.128Z,99.90
2018-06-10T06:12:50.388Z,99.90
2018-06-10T06:15:18.652Z,99.90
2018-06-10T06:20:45.349Z,99.90
2018-06-10T06:23:13.573Z,99.90
2018-06-10T07:20:20.163Z,99.90
2018-06-10T08:14:13.689Z,99.90
2018-06-10T08:19:35.897Z,99.90
2018-06-10T08:22:04.285Z,99.90
2018-06-10T09:13:01.969Z,91.40
2018-06-10T09:15:30.296Z,92.90
2018-06-10T09:17:58.604Z,93.30
2018-06-10T09:20:40.936Z,91.90
2018-06-10T09:23:09.256Z,91.50
2018-06-10T10:17:23.601Z,72.90
2018-06-10T10:22:46.913Z,66.20
2018-06-10T10:25:15.208Z,61.00
2018-06-10T10:27:43.519Z,60.10
2018-06-10T10:30:11.832Z,60.70
2018-06-10T10:32:40.118Z,58.90
2018-06-10T10:35:08.412Z,57.20
2018-06-10T10:37:36.737Z,57.70
2018-06-10T10:40:05.046Z,57.80
2018-06-10T10:42:33.344Z,56.70
2018-06-10T10:45:01.644Z,68.10
2018-06-10T10:47:29.924Z,74.60
2018-06-10T10:49:58.212Z,78.20
2018-06-10T10:52:26.459Z,82.30
2018-06-10T10:54:54.698Z,83.00
2018-06-10T10:57:22.940Z,81.70
2018-06-10T10:59:51.192Z,85.40
2018-06-10T11:02:19.436Z,89.30
2018-06-10T11:04:47.686Z,88.90
2018-06-10T11:07:15.956Z,90.70
2018-06-10T11:09:44.227Z,93.10
2018-06-10T11:12:12.480Z,94.70
2018-06-10T11:14:40.721Z,95.50
2018-06-10T11:17:08.992Z,97.00
2018-06-10T11:22:30.707Z,98.40
2018-06-10T11:24:59.016Z,96.60
2018-06-10T11:27:27.300Z,96.40
2018-06-10T11:29:55.613Z,94.70
2018-06-10T11:32:23.912Z,94.40
2018-06-10T11:34:52.213Z,94.80
2018-06-10T11:37:20.520Z,94.20
2018-06-10T11:39:48.830Z,93.50
2018-06-10T11:42:17.173Z,94.50
2018-06-10T11:44:45.461Z,94.20
2018-06-10T11:47:13.767Z,94.30
2018-06-10T11:49:42.068Z,94.60
2018-06-10T11:52:10.464Z,94.70
2018-06-10T11:54:38.664Z,94.40
2018-06-10T11:57:06.911Z,93.60
2018-06-10T11:59:35.214Z,92.70
2018-06-10T12:02:03.529Z,92.70
2018-06-10T12:04:31.781Z,92.70
2018-06-10T12:07:00.061Z,92.70
2018-06-10T12:09:28.312Z,92.00
2018-06-10T12:11:56.584Z,92.00
2018-06-10T12:14:24.857Z,92.00
2018-06-10T12:16:53.130Z,91.20
2018-06-10T12:22:14.272Z,91.80
2018-06-10T12:24:42.528Z,93.20
2018-06-10T12:27:10.800Z,93.90
2018-06-10T12:29:45.379Z,94.30
2018-06-10T12:32:13.668Z,95.00
2018-06-10T12:34:41.921Z,96.00
2018-06-10T12:37:10.222Z,95.80
2018-06-10T12:39:38.478Z,96.60
2018-06-10T12:42:06.721Z,97.50
2018-06-10T12:44:34.980Z,99.90
2018-06-10T12:47:03.256Z,99.90
2018-06-10T12:49:31.504Z,99.90
2018-06-10T12:51:59.771Z,99.90
2018-06-10T12:54:28.037Z,99.90
2018-06-10T12:56:56.330Z,99.90
2018-06-10T12:59:24.556Z,99.90
2018-06-10T13:01:52.805Z,99.90
2018-06-10T13:04:21.121Z,99.90
2018-06-10T13:06:49.384Z,99.90
2018-06-10T13:09:17.652Z,99.90
2018-06-10T13:11:45.924Z,99.90
2018-06-10T13:20:09.973Z,99.90
2018-06-10T13:22:38.561Z,99.90
2018-06-10T13:25:09.654Z,99.90
2018-06-10T13:27:38.000Z,99.90
2018-06-10T13:30:06.296Z,99.90
2018-06-10T13:32:34.641Z,99.90
2018-06-10T13:35:02.932Z,99.90
2018-06-10T13:37:31.240Z,99.90
2018-06-10T13:39:59.536Z,99.90
2018-06-10T13:42:27.829Z,99.90
2018-06-10T13:44:56.144Z,99.90
2018-06-10T13:47:24.470Z,99.90
2018-06-10T13:49:52.744Z,99.90
2018-06-10T13:52:21.016Z,99.90
2018-06-10T13:54:49.292Z,99.90
2018-06-10T13:57:17.564Z,99.90
2018-06-10T13:59:45.850Z,99.90
2018-06-10T14:02:14.123Z,99.90
2018-06-10T14:04:42.436Z,99.90
2018-06-10T14:07:10.727Z,99.90
2018-06-10T14:09:39.010Z,99.90
2018-06-10T14:12:07.493Z,99.90
2018-06-10T14:14:35.768Z,99.90
2018-06-10T14:17:04.091Z,99.90
2018-06-10T14:19:32.376Z,99.90
2018-06-10T14:27:47.299Z,99.90
2018-06-10T14:30:15.636Z,99.90
2018-06-10T14:32:43.860Z,99.90
2018-06-10T14:35:12.149Z,99.90
2018-06-10T14:37:40.435Z,99.90
2018-06-10T14:40:09.613Z,99.90
2018-06-10T14:42:37.908Z,99.90
2018-06-10T14:45:06.188Z,99.90
2018-06-10T14:47:34.450Z,99.90
2018-06-10T14:50:02.715Z,99.90
2018-06-10T14:52:30.980Z,99.90
2018-06-10T14:54:59.308Z,99.90
2018-06-10T14:57:27.544Z,99.90
2018-06-10T14:59:55.842Z,99.90
2018-06-10T15:02:24.143Z,99.90
2018-06-10T15:04:52.418Z,99.90
2018-06-10T15:07:20.708Z,99.90
2018-06-10T15:09:48.977Z,99.90
2018-06-10T15:12:17.258Z,99.90
2018-06-10T15:14:45.512Z,99.90
2018-06-10T15:17:13.785Z,99.90
2018-06-10T15:19:42.325Z,99.90
2018-06-10T15:22:10.752Z,99.90
2018-06-10T16:16:15.312Z,99.90
2018-06-10T16:24:30.105Z,99.90
2018-06-10T16:26:58.441Z,99.90
2018-06-10T16:29:26.750Z,99.90
2018-06-10T16:31:55.057Z,99.90
2018-06-10T16:34:23.353Z,99.90
2018-06-10T16:36:51.620Z,99.90
2018-06-10T16:39:19.907Z,99.90
2018-06-10T16:41:48.209Z,99.90
2018-06-10T16:44:16.480Z,99.90
2018-06-10T16:46:44.742Z,99.90
2018-06-10T16:49:13.041Z,99.90
2018-06-10T16:51:41.354Z,99.90
2018-06-10T16:54:09.673Z,99.90
2018-06-10T16:56:37.946Z,99.90
2018-06-10T16:59:06.226Z,99.90
2018-06-10T17:01:34.492Z,99.90
2018-06-10T17:04:02.797Z,99.90
2018-06-10T17:06:31.036Z,99.90
2018-06-10T17:08:59.310Z,99.90
2018-06-10T17:11:27.571Z,99.90
2018-06-10T17:13:55.868Z,99.90
2018-06-10T17:16:24.161Z,99.90
2018-06-10T17:22:00.933Z,99.90
2018-06-10T17:24:29.276Z,99.90
2018-06-10T17:26:57.588Z,99.90
2018-06-10T17:29:25.877Z,99.90
2018-06-10T17:31:54.179Z,99.90
2018-06-10T17:34:22.473Z,99.90
2018-06-10T17:36:50.773Z,99.90
2018-06-10T17:39:19.085Z,99.90
2018-06-10T17:41:47.412Z,99.90
2018-06-10T17:44:15.712Z,99.90
2018-06-10T17:46:44.060Z,99.90
2018-06-10T17:49:12.376Z,99.90
2018-06-10T17:51:40.703Z,99.90
2018-06-10T17:54:08.976Z,99.90
2018-06-10T17:56:37.284Z,99.90
2018-06-10T17:59:05.569Z,99.90
2018-06-10T18:01:33.859Z,99.90
2018-06-10T18:04:02.133Z,99.90
2018-06-10T18:06:30.401Z,99.90
2018-06-10T18:08:58.676Z,99.90
2018-06-10T18:11:26.972Z,99.90
2018-06-10T18:17:10.148Z,99.90
2018-06-10T18:19:54.940Z,99.90
2018-06-10T18:22:25.753Z,99.90
2018-06-10T18:27:47.296Z,99.90
2018-06-10T18:30:15.618Z,99.90
2018-06-10T18:32:43.932Z,99.90
2018-06-10T18:35:12.218Z,99.90
2018-06-10T18:37:40.532Z,99.90
2018-06-10T18:40:09.721Z,99.90
2018-06-10T18:42:38.036Z,99.90
2018-06-10T18:45:06.352Z,99.90
2018-06-10T18:47:34.673Z,99.90
2018-06-10T18:50:02.982Z,99.90
2018-06-10T18:52:31.293Z,99.90
2018-06-10T18:54:59.604Z,99.90
2018-06-10T18:57:27.878Z,99.90
2018-06-10T18:59:56.140Z,99.90
2018-06-10T19:02:24.385Z,99.90
2018-06-10T19:04:52.661Z,99.90
2018-06-10T19:07:20.936Z,99.90
2018-06-10T19:09:49.219Z,99.90
2018-06-10T19:12:17.486Z,99.90
2018-06-10T19:20:43.209Z,99.90
2018-06-10T19:23:11.530Z,99.90
2018-06-10T19:25:39.842Z,99.90
2018-06-10T19:28:08.164Z,99.90
2018-06-10T19:30:36.564Z,99.90
2018-06-10T19:33:04.919Z,99.90
2018-06-10T19:35:33.229Z,99.90
2018-06-10T19:38:01.558Z,99.90
2018-06-10T19:40:29.870Z,99.90
2018-06-10T19:42:58.177Z,99.90
2018-06-10T19:45:26.492Z,99.90
2018-06-10T19:47:54.771Z,99.90
2018-06-10T19:50:23.068Z,99.90
2018-06-10T19:52:51.343Z,99.90
2018-06-10T19:55:19.596Z,99.90
2018-06-10T19:57:47.928Z,99.90
2018-06-10T20:00:16.204Z,99.90
2018-06-10T20:02:44.488Z,99.90
2018-06-10T20:05:12.745Z,99.90
2018-06-10T20:07:41.008Z,99.90
2018-06-10T20:10:09.262Z,99.90
2018-06-10T20:12:37.521Z,99.90
2018-06-10T20:15:05.792Z,99.90
2018-06-10T20:17:34.057Z,99.90
2018-06-10T20:20:12.113Z,99.90
2018-06-10T20:25:33.128Z,99.90
2018-06-10T20:28:01.413Z,99.90
2018-06-10T20:30:30.057Z,99.90
2018-06-10T20:32:58.255Z,99.90
2018-06-10T20:35:26.497Z,99.90
2018-06-10T20:37:54.762Z,99.90
2018-06-10T20:40:23.044Z,99.90
2018-06-10T20:42:51.291Z,99.90
2018-06-10T20:45:19.561Z,99.90
2018-06-10T20:47:47.826Z,99.90
2018-06-10T20:50:16.104Z,99.90
2018-06-10T20:52:44.367Z,99.90
2018-06-10T20:55:12.631Z,99.90
2018-06-10T20:57:40.900Z,99.90
2018-06-10T21:00:09.152Z,99.90
2018-06-10T21:02:37.420Z,99.90
2018-06-10T21:05:05.721Z,99.90
2018-06-10T21:07:33.982Z,99.90
2018-06-10T21:10:02.245Z,99.90
2018-06-10T21:12:30.485Z,99.90
2018-06-10T22:12:47.644Z,99.90
2018-06-10T22:18:09.136Z,99.90
2018-06-10T23:18:34.960Z,99.90
